sensor_id;sensor_type;location;lat;lon;timestamp;temperature;humidity
14142;DHT22;7151;52.246;4.820;2022-10-12T00:00:55;14.50;69.00
14142;DHT22;7151;52.246;4.820;2022-10-12T00:03:21;14.50;69.10
14142;DHT22;7151;52.246;4.820;2022-10-12T00:05:47;14.40;69.10
14142;DHT22;7151;52.246;4.820;2022-10-12T00:08:15;14.50;69.20
14142;DHT22;7151;52.246;4.820;2022-10-12T00:10:42;14.40;69.20
14142;DHT22;7151;52.246;4.820;2022-10-12T00:13:09;14.40;69.20
14142;DHT22;7151;52.246;4.820;2022-10-12T00:15:39;14.40;69.20
14142;DHT22;7151;52.246;4.820;2022-10-12T00:18:05;14.40;69.30
14142;DHT22;7151;52.246;4.820;2022-10-12T00:20:31;14.40;69.30
14142;DHT22;7151;52.246;4.820;2022-10-12T00:22:57;14.40;69.30
14142;DHT22;7151;52.246;4.820;2022-10-12T00:25:22;14.30;69.30
14142;DHT22;7151;52.246;4.820;2022-10-12T00:27:48;14.30;69.30
14142;DHT22;7151;52.246;4.820;2022-10-12T00:30:13;14.30;69.30
14142;DHT22;7151;52.246;4.820;2022-10-12T00:32:39;14.30;69.30
14142;DHT22;7151;52.246;4.820;2022-10-12T00:35:05;14.20;69.30
14142;DHT22;7151;52.246;4.820;2022-10-12T00:37:30;14.30;69.40
14142;DHT22;7151;52.246;4.820;2022-10-12T00:39:56;14.20;69.30
14142;DHT22;7151;52.246;4.820;2022-10-12T00:42:21;14.20;69.30
14142;DHT22;7151;52.246;4.820;2022-10-12T00:44:48;14.20;69.30
14142;DHT22;7151;52.246;4.820;2022-10-12T00:47:25;14.20;69.40
14142;DHT22;7151;52.246;4.820;2022-10-12T00:52:33;14.10;69.40
14142;DHT22;7151;52.246;4.820;2022-10-12T00:55:02;14.10;69.40
14142;DHT22;7151;52.246;4.820;2022-10-12T00:57:28;14.10;69.50
14142;DHT22;7151;52.246;4.820;2022-10-12T01:00:03;14.10;69.40
14142;DHT22;7151;52.246;4.820;2022-10-12T01:02:31;14.00;69.40
14142;DHT22;7151;52.246;4.820;2022-10-12T01:04:59;14.00;69.40
14142;DHT22;7151;52.246;4.820;2022-10-12T01:07:25;14.00;69.50
14142;DHT22;7151;52.246;4.820;2022-10-12T01:09:50;14.00;69.50
14142;DHT22;7151;52.246;4.820;2022-10-12T01:12:17;14.00;69.50
14142;DHT22;7151;52.246;4.820;2022-10-12T01:14:43;13.90;69.50
14142;DHT22;7151;52.246;4.820;2022-10-12T01:23:19;13.90;69.50
14142;DHT22;7151;52.246;4.820;2022-10-12T01:25:56;13.90;69.50
14142;DHT22;7151;52.246;4.820;2022-10-12T01:34:26;13.80;69.30
14142;DHT22;7151;52.246;4.820;2022-10-12T01:37:00;13.80;69.40
14142;DHT22;7151;52.246;4.820;2022-10-12T01:39:44;13.70;69.30
14142;DHT22;7151;52.246;4.820;2022-10-12T01:42:16;13.70;69.30
14142;DHT22;7151;52.246;4.820;2022-10-12T01:44:44;13.70;69.30
14142;DHT22;7151;52.246;4.820;2022-10-12T01:47:09;13.60;69.20
14142;DHT22;7151;52.246;4.820;2022-10-12T01:49:36;13.70;69.30
14142;DHT22;7151;52.246;4.820;2022-10-12T01:54:55;13.60;69.30
14142;DHT22;7151;52.246;4.820;2022-10-12T01:57:27;13.60;69.40
14142;DHT22;7151;52.246;4.820;2022-10-12T02:00:08;13.60;69.30
14142;DHT22;7151;52.246;4.820;2022-10-12T02:05:36;13.50;69.30
14142;DHT22;7151;52.246;4.820;2022-10-12T02:08:22;13.50;69.30
14142;DHT22;7151;52.246;4.820;2022-10-12T02:10:59;13.50;69.40
14142;DHT22;7151;52.246;4.820;2022-10-12T02:13:30;13.50;69.50
14142;DHT22;7151;52.246;4.820;2022-10-12T02:15:59;13.50;69.60
14142;DHT22;7151;52.246;4.820;2022-10-12T02:18:26;13.50;69.60
14142;DHT22;7151;52.246;4.820;2022-10-12T02:20:53;13.50;69.60
14142;DHT22;7151;52.246;4.820;2022-10-12T02:23:20;13.40;69.60
14142;DHT22;7151;52.246;4.820;2022-10-12T02:25:48;13.40;69.70
14142;DHT22;7151;52.246;4.820;2022-10-12T02:28:16;13.40;69.80
14142;DHT22;7151;52.246;4.820;2022-10-12T02:30:51;13.40;69.80
14142;DHT22;7151;52.246;4.820;2022-10-12T02:33:24;13.40;69.90
14142;DHT22;7151;52.246;4.820;2022-10-12T02:36:01;13.40;69.90
14142;DHT22;7151;52.246;4.820;2022-10-12T02:38:31;13.40;70.00
14142;DHT22;7151;52.246;4.820;2022-10-12T02:41:15;13.40;70.00
14142;DHT22;7151;52.246;4.820;2022-10-12T02:43:54;13.40;70.00
14142;DHT22;7151;52.246;4.820;2022-10-12T02:46:23;13.40;70.00
14142;DHT22;7151;52.246;4.820;2022-10-12T02:48:50;13.40;70.00
14142;DHT22;7151;52.246;4.820;2022-10-12T02:51:17;13.40;70.00
14142;DHT22;7151;52.246;4.820;2022-10-12T02:53:44;13.40;70.10
14142;DHT22;7151;52.246;4.820;2022-10-12T02:56:12;13.40;70.20
14142;DHT22;7151;52.246;4.820;2022-10-12T02:58:42;13.40;70.30
14142;DHT22;7151;52.246;4.820;2022-10-12T03:01:09;13.40;70.40
14142;DHT22;7151;52.246;4.820;2022-10-12T03:03:35;13.40;70.30
14142;DHT22;7151;52.246;4.820;2022-10-12T03:06:00;13.40;70.90
14142;DHT22;7151;52.246;4.820;2022-10-12T03:08:26;13.40;70.20
14142;DHT22;7151;52.246;4.820;2022-10-12T03:10:51;13.40;70.20
14142;DHT22;7151;52.246;4.820;2022-10-12T03:13:17;13.40;70.10
14142;DHT22;7151;52.246;4.820;2022-10-12T03:15:43;13.30;69.90
14142;DHT22;7151;52.246;4.820;2022-10-12T03:18:09;13.30;69.90
14142;DHT22;7151;52.246;4.820;2022-10-12T03:20:34;13.30;69.90
14142;DHT22;7151;52.246;4.820;2022-10-12T03:23:00;13.30;69.80
14142;DHT22;7151;52.246;4.820;2022-10-12T03:25:26;13.30;69.70
14142;DHT22;7151;52.246;4.820;2022-10-12T03:27:51;13.20;69.70
14142;DHT22;7151;52.246;4.820;2022-10-12T03:30:17;13.20;69.60
14142;DHT22;7151;52.246;4.820;2022-10-12T03:32:42;13.20;69.70
14142;DHT22;7151;52.246;4.820;2022-10-12T03:35:08;13.20;69.60
14142;DHT22;7151;52.246;4.820;2022-10-12T03:37:34;13.10;69.60
14142;DHT22;7151;52.246;4.820;2022-10-12T03:39:59;13.10;69.60
14142;DHT22;7151;52.246;4.820;2022-10-12T03:42:25;13.10;69.60
14142;DHT22;7151;52.246;4.820;2022-10-12T03:44:50;13.10;69.60
14142;DHT22;7151;52.246;4.820;2022-10-12T03:47:16;13.00;69.60
14142;DHT22;7151;52.246;4.820;2022-10-12T03:49:41;13.00;69.60
14142;DHT22;7151;52.246;4.820;2022-10-12T03:52:07;13.00;69.60
14142;DHT22;7151;52.246;4.820;2022-10-12T03:54:33;13.00;69.60
14142;DHT22;7151;52.246;4.820;2022-10-12T03:56:59;13.00;69.70
14142;DHT22;7151;52.246;4.820;2022-10-12T03:59:24;12.90;69.60
14142;DHT22;7151;52.246;4.820;2022-10-12T04:01:50;13.00;69.80
14142;DHT22;7151;52.246;4.820;2022-10-12T04:04:15;12.90;69.70
14142;DHT22;7151;52.246;4.820;2022-10-12T04:06:41;12.90;69.80
14142;DHT22;7151;52.246;4.820;2022-10-12T04:09:07;12.90;69.80
14142;DHT22;7151;52.246;4.820;2022-10-12T04:11:33;12.90;69.80
14142;DHT22;7151;52.246;4.820;2022-10-12T04:13:58;12.80;69.70
14142;DHT22;7151;52.246;4.820;2022-10-12T04:16:24;12.80;69.70
14142;DHT22;7151;52.246;4.820;2022-10-12T04:18:49;12.80;69.70
14142;DHT22;7151;52.246;4.820;2022-10-12T04:21:16;12.80;69.70
14142;DHT22;7151;52.246;4.820;2022-10-12T04:23:42;12.70;69.60
14142;DHT22;7151;52.246;4.820;2022-10-12T04:26:08;12.70;69.70
14142;DHT22;7151;52.246;4.820;2022-10-12T04:28:34;12.70;69.60
14142;DHT22;7151;52.246;4.820;2022-10-12T04:30:59;12.70;69.60
14142;DHT22;7151;52.246;4.820;2022-10-12T04:33:25;12.70;69.60
14142;DHT22;7151;52.246;4.820;2022-10-12T04:35:50;12.70;69.60
14142;DHT22;7151;52.246;4.820;2022-10-12T04:38:16;12.60;69.50
14142;DHT22;7151;52.246;4.820;2022-10-12T04:40:48;12.60;69.50
14142;DHT22;7151;52.246;4.820;2022-10-12T04:43:15;12.60;69.50
14142;DHT22;7151;52.246;4.820;2022-10-12T04:45:40;12.60;69.50
14142;DHT22;7151;52.246;4.820;2022-10-12T04:48:06;12.60;69.50
14142;DHT22;7151;52.246;4.820;2022-10-12T04:50:31;12.60;69.50
14142;DHT22;7151;52.246;4.820;2022-10-12T04:52:57;12.50;69.50
14142;DHT22;7151;52.246;4.820;2022-10-12T04:55:23;12.50;69.60
14142;DHT22;7151;52.246;4.820;2022-10-12T04:57:48;12.50;69.60
14142;DHT22;7151;52.246;4.820;2022-10-12T05:00:14;12.50;69.70
14142;DHT22;7151;52.246;4.820;2022-10-12T05:02:40;12.50;69.70
14142;DHT22;7151;52.246;4.820;2022-10-12T05:05:06;12.50;69.70
14142;DHT22;7151;52.246;4.820;2022-10-12T05:07:31;12.50;69.70
14142;DHT22;7151;52.246;4.820;2022-10-12T05:09:57;12.50;69.70
14142;DHT22;7151;52.246;4.820;2022-10-12T05:12:22;12.50;69.80
14142;DHT22;7151;52.246;4.820;2022-10-12T05:14:48;12.50;69.90
14142;DHT22;7151;52.246;4.820;2022-10-12T05:17:13;12.40;69.90
14142;DHT22;7151;52.246;4.820;2022-10-12T05:19:39;12.40;69.80
14142;DHT22;7151;52.246;4.820;2022-10-12T05:22:05;12.40;69.90
14142;DHT22;7151;52.246;4.820;2022-10-12T05:24:30;12.40;70.00
14142;DHT22;7151;52.246;4.820;2022-10-12T05:26:56;12.40;70.10
14142;DHT22;7151;52.246;4.820;2022-10-12T05:29:21;12.50;70.30
14142;DHT22;7151;52.246;4.820;2022-10-12T05:31:47;12.50;70.50
14142;DHT22;7151;52.246;4.820;2022-10-12T05:34:12;12.50;70.60
14142;DHT22;7151;52.246;4.820;2022-10-12T05:36:38;12.50;70.60
14142;DHT22;7151;52.246;4.820;2022-10-12T05:39:03;12.50;70.70
14142;DHT22;7151;52.246;4.820;2022-10-12T05:41:29;12.50;70.70
14142;DHT22;7151;52.246;4.820;2022-10-12T05:43:54;12.50;70.70
14142;DHT22;7151;52.246;4.820;2022-10-12T05:46:20;12.50;70.80
14142;DHT22;7151;52.246;4.820;2022-10-12T05:48:45;12.50;70.80
14142;DHT22;7151;52.246;4.820;2022-10-12T05:51:11;12.50;70.80
14142;DHT22;7151;52.246;4.820;2022-10-12T05:53:36;12.50;70.80
14142;DHT22;7151;52.246;4.820;2022-10-12T05:56:02;12.50;70.90
14142;DHT22;7151;52.246;4.820;2022-10-12T05:58:29;12.50;70.90
14142;DHT22;7151;52.246;4.820;2022-10-12T06:01:02;12.50;71.00
14142;DHT22;7151;52.246;4.820;2022-10-12T06:03:28;12.50;70.90
14142;DHT22;7151;52.246;4.820;2022-10-12T06:05:53;12.50;70.90
14142;DHT22;7151;52.246;4.820;2022-10-12T06:08:19;12.50;70.90
14142;DHT22;7151;52.246;4.820;2022-10-12T06:10:45;12.40;70.80
14142;DHT22;7151;52.246;4.820;2022-10-12T06:13:11;12.40;70.90
14142;DHT22;7151;52.246;4.820;2022-10-12T06:15:37;12.40;70.80
14142;DHT22;7151;52.246;4.820;2022-10-12T06:18:03;12.40;70.90
14142;DHT22;7151;52.246;4.820;2022-10-12T06:20:28;12.40;70.90
14142;DHT22;7151;52.246;4.820;2022-10-12T06:22:54;12.40;70.90
14142;DHT22;7151;52.246;4.820;2022-10-12T06:25:19;12.40;71.00
14142;DHT22;7151;52.246;4.820;2022-10-12T06:27:45;12.40;71.20
14142;DHT22;7151;52.246;4.820;2022-10-12T06:30:12;12.40;71.20
14142;DHT22;7151;52.246;4.820;2022-10-12T06:32:37;12.40;72.00
14142;DHT22;7151;52.246;4.820;2022-10-12T06:35:03;12.40;71.40
14142;DHT22;7151;52.246;4.820;2022-10-12T06:37:29;12.40;71.50
14142;DHT22;7151;52.246;4.820;2022-10-12T06:39:55;12.40;71.50
14142;DHT22;7151;52.246;4.820;2022-10-12T06:42:21;12.40;71.60
14142;DHT22;7151;52.246;4.820;2022-10-12T06:44:46;12.40;71.80
14142;DHT22;7151;52.246;4.820;2022-10-12T06:47:12;12.40;71.90
14142;DHT22;7151;52.246;4.820;2022-10-12T06:49:37;12.40;72.00
14142;DHT22;7151;52.246;4.820;2022-10-12T06:52:03;12.50;72.20
14142;DHT22;7151;52.246;4.820;2022-10-12T06:54:28;12.50;72.40
14142;DHT22;7151;52.246;4.820;2022-10-12T06:56:54;12.50;72.40
14142;DHT22;7151;52.246;4.820;2022-10-12T06:59:19;12.50;72.50
14142;DHT22;7151;52.246;4.820;2022-10-12T07:01:50;12.50;72.70
14142;DHT22;7151;52.246;4.820;2022-10-12T07:04:16;12.60;72.80
14142;DHT22;7151;52.246;4.820;2022-10-12T07:06:42;12.60;72.90
14142;DHT22;7151;52.246;4.820;2022-10-12T07:09:08;12.70;73.10
14142;DHT22;7151;52.246;4.820;2022-10-12T07:11:33;12.60;73.10
14142;DHT22;7151;52.246;4.820;2022-10-12T07:13:59;12.70;73.30
14142;DHT22;7151;52.246;4.820;2022-10-12T07:16:24;12.70;73.30
14142;DHT22;7151;52.246;4.820;2022-10-12T07:18:50;12.70;73.30
14142;DHT22;7151;52.246;4.820;2022-10-12T07:21:16;12.70;73.30
14142;DHT22;7151;52.246;4.820;2022-10-12T07:23:41;12.70;73.40
14142;DHT22;7151;52.246;4.820;2022-10-12T07:26:07;12.80;73.60
14142;DHT22;7151;52.246;4.820;2022-10-12T07:28:34;12.80;73.60
14142;DHT22;7151;52.246;4.820;2022-10-12T07:31:01;12.80;73.60
14142;DHT22;7151;52.246;4.820;2022-10-12T07:33:30;12.80;73.70
14142;DHT22;7151;52.246;4.820;2022-10-12T07:35:56;12.80;73.70
14142;DHT22;7151;52.246;4.820;2022-10-12T07:38:22;12.90;73.70
14142;DHT22;7151;52.246;4.820;2022-10-12T07:40:47;12.90;73.80
14142;DHT22;7151;52.246;4.820;2022-10-12T07:43:13;12.90;73.80
14142;DHT22;7151;52.246;4.820;2022-10-12T07:45:38;12.90;73.80
14142;DHT22;7151;52.246;4.820;2022-10-12T07:48:04;12.90;73.90
14142;DHT22;7151;52.246;4.820;2022-10-12T07:50:30;12.90;73.80
14142;DHT22;7151;52.246;4.820;2022-10-12T07:52:56;13.00;74.00
14142;DHT22;7151;52.246;4.820;2022-10-12T07:55:22;13.00;74.00
14142;DHT22;7151;52.246;4.820;2022-10-12T07:57:47;13.00;74.10
14142;DHT22;7151;52.246;4.820;2022-10-12T08:00:13;13.00;74.20
14142;DHT22;7151;52.246;4.820;2022-10-12T08:02:39;13.00;74.20
14142;DHT22;7151;52.246;4.820;2022-10-12T08:05:05;13.10;74.30
14142;DHT22;7151;52.246;4.820;2022-10-12T08:07:30;13.10;74.30
14142;DHT22;7151;52.246;4.820;2022-10-12T08:09:56;13.10;74.30
14142;DHT22;7151;52.246;4.820;2022-10-12T08:12:21;13.10;74.20
14142;DHT22;7151;52.246;4.820;2022-10-12T08:14:47;13.20;74.30
14142;DHT22;7151;52.246;4.820;2022-10-12T08:17:12;13.20;74.30
14142;DHT22;7151;52.246;4.820;2022-10-12T08:19:38;13.20;74.30
14142;DHT22;7151;52.246;4.820;2022-10-12T08:22:03;13.30;74.30
14142;DHT22;7151;52.246;4.820;2022-10-12T08:24:29;13.30;74.30
14142;DHT22;7151;52.246;4.820;2022-10-12T08:26:54;13.30;74.20
14142;DHT22;7151;52.246;4.820;2022-10-12T08:29:20;13.40;74.30
14142;DHT22;7151;52.246;4.820;2022-10-12T08:31:45;13.40;74.30
14142;DHT22;7151;52.246;4.820;2022-10-12T08:34:14;13.50;74.40
14142;DHT22;7151;52.246;4.820;2022-10-12T08:36:40;13.50;74.40
14142;DHT22;7151;52.246;4.820;2022-10-12T08:39:05;13.60;74.40
14142;DHT22;7151;52.246;4.820;2022-10-12T08:41:44;13.60;74.70
14142;DHT22;7151;52.246;4.820;2022-10-12T08:50:26;13.80;74.60
14142;DHT22;7151;52.246;4.820;2022-10-12T08:53:08;13.80;74.70
14142;DHT22;7151;52.246;4.820;2022-10-12T08:55:42;13.90;74.80
14142;DHT22;7151;52.246;4.820;2022-10-12T08:58:20;14.00;74.80
14142;DHT22;7151;52.246;4.820;2022-10-12T09:00:51;14.00;74.80
14142;DHT22;7151;52.246;4.820;2022-10-12T09:03:51;14.10;74.70
14142;DHT22;7151;52.246;4.820;2022-10-12T09:06:21;14.10;74.60
14142;DHT22;7151;52.246;4.820;2022-10-12T09:11:43;14.20;74.30
14142;DHT22;7151;52.246;4.820;2022-10-12T09:14:16;14.20;74.30
14142;DHT22;7151;52.246;4.820;2022-10-12T09:16:45;14.20;74.30
14142;DHT22;7151;52.246;4.820;2022-10-12T09:19:19;14.30;74.50
14142;DHT22;7151;52.246;4.820;2022-10-12T09:21:46;14.30;74.60
14142;DHT22;7151;52.246;4.820;2022-10-12T09:24:18;14.40;74.60
14142;DHT22;7151;52.246;4.820;2022-10-12T09:26:47;14.50;74.60
14142;DHT22;7151;52.246;4.820;2022-10-12T09:34:22;14.60;74.80
14142;DHT22;7151;52.246;4.820;2022-10-12T09:36:48;14.70;74.80
14142;DHT22;7151;52.246;4.820;2022-10-12T09:39:28;14.80;75.40
14142;DHT22;7151;52.246;4.820;2022-10-12T09:41:55;14.80;74.40
14142;DHT22;7151;52.246;4.820;2022-10-12T09:44:31;14.90;74.30
14142;DHT22;7151;52.246;4.820;2022-10-12T09:46:59;15.00;74.20
14142;DHT22;7151;52.246;4.820;2022-10-12T09:49:45;15.00;74.00
14142;DHT22;7151;52.246;4.820;2022-10-12T09:52:12;15.10;74.00
14142;DHT22;7151;52.246;4.820;2022-10-12T09:54:45;15.10;74.00
14142;DHT22;7151;52.246;4.820;2022-10-12T09:57:27;15.20;74.00
14142;DHT22;7151;52.246;4.820;2022-10-12T09:59:54;15.20;73.70
14142;DHT22;7151;52.246;4.820;2022-10-12T10:02:21;15.30;73.60
14142;DHT22;7151;52.246;4.820;2022-10-12T10:04:48;15.30;73.40
14142;DHT22;7151;52.246;4.820;2022-10-12T10:07:25;15.40;73.40
14142;DHT22;7151;52.246;4.820;2022-10-12T10:10:18;15.40;73.10
14142;DHT22;7151;52.246;4.820;2022-10-12T10:12:59;15.50;73.00
14142;DHT22;7151;52.246;4.820;2022-10-12T10:15:30;15.60;72.80
14142;DHT22;7151;52.246;4.820;2022-10-12T10:17:58;15.60;73.30
14142;DHT22;7151;52.246;4.820;2022-10-12T10:23:04;15.80;72.10
14142;DHT22;7151;52.246;4.820;2022-10-12T10:25:31;15.80;71.90
14142;DHT22;7151;52.246;4.820;2022-10-12T10:28:33;15.80;71.80
14142;DHT22;7151;52.246;4.820;2022-10-12T10:30:59;15.90;71.80
14142;DHT22;7151;52.246;4.820;2022-10-12T10:33:27;15.90;71.80
14142;DHT22;7151;52.246;4.820;2022-10-12T10:35:57;16.00;71.80
14142;DHT22;7151;52.246;4.820;2022-10-12T10:38:23;16.00;71.70
14142;DHT22;7151;52.246;4.820;2022-10-12T10:40:54;16.10;71.80
14142;DHT22;7151;52.246;4.820;2022-10-12T10:43:29;16.10;71.50
14142;DHT22;7151;52.246;4.820;2022-10-12T10:46:00;16.20;71.40
14142;DHT22;7151;52.246;4.820;2022-10-12T10:48:30;16.30;71.30
14142;DHT22;7151;52.246;4.820;2022-10-12T10:51:00;16.40;71.10
14142;DHT22;7151;52.246;4.820;2022-10-12T10:53:31;16.40;70.70
14142;DHT22;7151;52.246;4.820;2022-10-12T11:06:40;16.80;69.50
14142;DHT22;7151;52.246;4.820;2022-10-12T11:09:18;16.80;69.20
14142;DHT22;7151;52.246;4.820;2022-10-12T11:11:52;16.90;69.10
14142;DHT22;7151;52.246;4.820;2022-10-12T11:14:24;17.00;69.10
14142;DHT22;7151;52.246;4.820;2022-10-12T11:16:55;17.00;68.90
14142;DHT22;7151;52.246;4.820;2022-10-12T11:20:03;17.10;68.70
14142;DHT22;7151;52.246;4.820;2022-10-12T11:22:43;17.10;68.40
14142;DHT22;7151;52.246;4.820;2022-10-12T11:25:24;17.20;68.20
14142;DHT22;7151;52.246;4.820;2022-10-12T11:27:52;17.20;67.90
14142;DHT22;7151;52.246;4.820;2022-10-12T11:30:23;17.20;67.80
14142;DHT22;7151;52.246;4.820;2022-10-12T11:33:02;17.30;67.60
14142;DHT22;7151;52.246;4.820;2022-10-12T11:35:34;17.30;67.30
14142;DHT22;7151;52.246;4.820;2022-10-12T11:38:06;17.30;67.00
14142;DHT22;7151;52.246;4.820;2022-10-12T11:40:41;17.30;66.80
14142;DHT22;7151;52.246;4.820;2022-10-12T11:43:14;17.30;66.70
14142;DHT22;7151;52.246;4.820;2022-10-12T11:45:44;17.30;66.60
14142;DHT22;7151;52.246;4.820;2022-10-12T11:48:42;17.30;66.50
14142;DHT22;7151;52.246;4.820;2022-10-12T11:51:10;17.30;65.90
14142;DHT22;7151;52.246;4.820;2022-10-12T11:53:46;17.30;65.80
14142;DHT22;7151;52.246;4.820;2022-10-12T11:59:00;17.30;65.20
14142;DHT22;7151;52.246;4.820;2022-10-12T12:04:27;17.40;65.00
14142;DHT22;7151;52.246;4.820;2022-10-12T12:12:35;17.50;64.40
14142;DHT22;7151;52.246;4.820;2022-10-12T12:15:21;17.50;64.10
14142;DHT22;7151;52.246;4.820;2022-10-12T12:18:10;17.60;64.40
14142;DHT22;7151;52.246;4.820;2022-10-12T12:28:36;17.80;64.30
14142;DHT22;7151;52.246;4.820;2022-10-12T12:33:42;17.90;63.40
14142;DHT22;7151;52.246;4.820;2022-10-12T12:36:25;18.00;63.50
14142;DHT22;7151;52.246;4.820;2022-10-12T12:38:52;18.10;63.30
14142;DHT22;7151;52.246;4.820;2022-10-12T12:41:27;18.10;62.90
14142;DHT22;7151;52.246;4.820;2022-10-12T12:44:36;18.10;62.60
14142;DHT22;7151;52.246;4.820;2022-10-12T12:49:54;18.10;62.30
14142;DHT22;7151;52.246;4.820;2022-10-12T12:52:27;18.10;62.00
14142;DHT22;7151;52.246;4.820;2022-10-12T12:57:56;18.10;62.20
14142;DHT22;7151;52.246;4.820;2022-10-12T13:03:32;18.00;62.30
14142;DHT22;7151;52.246;4.820;2022-10-12T13:20:21;17.90;62.80
14142;DHT22;7151;52.246;4.820;2022-10-12T13:22:48;18.00;63.00
14142;DHT22;7151;52.246;4.820;2022-10-12T13:27:52;17.90;62.80
14142;DHT22;7151;52.246;4.820;2022-10-12T13:30:33;17.90;62.80
14142;DHT22;7151;52.246;4.820;2022-10-12T13:35:45;18.00;62.80
14142;DHT22;7151;52.246;4.820;2022-10-12T13:40:54;18.00;63.20
14142;DHT22;7151;52.246;4.820;2022-10-12T13:45:54;18.00;63.40
14142;DHT22;7151;52.246;4.820;2022-10-12T13:48:22;18.10;63.30
14142;DHT22;7151;52.246;4.820;2022-10-12T13:50:59;18.10;63.00
14142;DHT22;7151;52.246;4.820;2022-10-12T13:53:26;18.10;62.80
14142;DHT22;7151;52.246;4.820;2022-10-12T13:56:04;18.10;62.70
14142;DHT22;7151;52.246;4.820;2022-10-12T13:58:33;18.20;63.30
14142;DHT22;7151;52.246;4.820;2022-10-12T14:01:00;18.20;62.60
14142;DHT22;7151;52.246;4.820;2022-10-12T14:03:35;18.20;62.50
14142;DHT22;7151;52.246;4.820;2022-10-12T14:06:01;18.20;62.40
14142;DHT22;7151;52.246;4.820;2022-10-12T14:08:28;18.20;62.50
14142;DHT22;7151;52.246;4.820;2022-10-12T14:10:57;18.20;62.40
14142;DHT22;7151;52.246;4.820;2022-10-12T14:13:32;18.30;62.60
14142;DHT22;7151;52.246;4.820;2022-10-12T14:15:59;18.30;62.50
14142;DHT22;7151;52.246;4.820;2022-10-12T14:18:45;18.30;62.20
14142;DHT22;7151;52.246;4.820;2022-10-12T14:21:24;18.30;62.10
14142;DHT22;7151;52.246;4.820;2022-10-12T14:23:59;18.30;62.00
14142;DHT22;7151;52.246;4.820;2022-10-12T14:26:39;18.30;61.70
14142;DHT22;7151;52.246;4.820;2022-10-12T14:29:27;18.30;61.70
14142;DHT22;7151;52.246;4.820;2022-10-12T14:31:58;18.30;61.80
14142;DHT22;7151;52.246;4.820;2022-10-12T14:37:20;18.30;62.00
14142;DHT22;7151;52.246;4.820;2022-10-12T14:39:48;18.30;62.10
14142;DHT22;7151;52.246;4.820;2022-10-12T14:44:48;18.30;62.10
14142;DHT22;7151;52.246;4.820;2022-10-12T14:47:30;18.30;62.10
14142;DHT22;7151;52.246;4.820;2022-10-12T14:49:57;18.30;62.10
14142;DHT22;7151;52.246;4.820;2022-10-12T14:54:57;18.20;62.80
14142;DHT22;7151;52.246;4.820;2022-10-12T14:57:26;18.20;62.10
14142;DHT22;7151;52.246;4.820;2022-10-12T14:59:51;18.20;62.10
14142;DHT22;7151;52.246;4.820;2022-10-12T15:02:27;18.20;62.20
14142;DHT22;7151;52.246;4.820;2022-10-12T15:04:53;18.20;62.30
14142;DHT22;7151;52.246;4.820;2022-10-12T15:09:46;18.20;62.50
14142;DHT22;7151;52.246;4.820;2022-10-12T15:12:14;18.20;62.60
14142;DHT22;7151;52.246;4.820;2022-10-12T15:14:41;18.20;62.60
14142;DHT22;7151;52.246;4.820;2022-10-12T15:17:10;18.20;62.60
14142;DHT22;7151;52.246;4.820;2022-10-12T15:19:35;18.20;62.60
14142;DHT22;7151;52.246;4.820;2022-10-12T15:22:01;18.20;62.60
14142;DHT22;7151;52.246;4.820;2022-10-12T15:24:26;18.20;62.60
14142;DHT22;7151;52.246;4.820;2022-10-12T15:26:52;18.30;62.80
14142;DHT22;7151;52.246;4.820;2022-10-12T15:29:17;18.20;62.70
14142;DHT22;7151;52.246;4.820;2022-10-12T15:31:43;18.30;62.80
14142;DHT22;7151;52.246;4.820;2022-10-12T15:34:11;18.30;62.90
14142;DHT22;7151;52.246;4.820;2022-10-12T15:36:37;18.30;62.90
14142;DHT22;7151;52.246;4.820;2022-10-12T15:39:03;18.30;62.90
14142;DHT22;7151;52.246;4.820;2022-10-12T15:41:29;18.30;62.90
14142;DHT22;7151;52.246;4.820;2022-10-12T15:43:54;18.30;62.90
14142;DHT22;7151;52.246;4.820;2022-10-12T15:46:20;18.30;62.80
14142;DHT22;7151;52.246;4.820;2022-10-12T15:48:46;18.30;62.60
14142;DHT22;7151;52.246;4.820;2022-10-12T15:51:32;18.30;62.30
14142;DHT22;7151;52.246;4.820;2022-10-12T15:54:00;18.40;62.00
14142;DHT22;7151;52.246;4.820;2022-10-12T15:56:25;18.30;61.70
14142;DHT22;7151;52.246;4.820;2022-10-12T15:58:51;18.40;61.50
14142;DHT22;7151;52.246;4.820;2022-10-12T16:01:18;18.40;61.50
14142;DHT22;7151;52.246;4.820;2022-10-12T16:03:44;18.40;61.50
14142;DHT22;7151;52.246;4.820;2022-10-12T16:06:10;18.30;61.70
14142;DHT22;7151;52.246;4.820;2022-10-12T16:08:36;18.30;61.40
14142;DHT22;7151;52.246;4.820;2022-10-12T16:11:04;18.30;61.20
14142;DHT22;7151;52.246;4.820;2022-10-12T16:13:30;18.30;61.10
14142;DHT22;7151;52.246;4.820;2022-10-12T16:15:55;18.30;60.90
14142;DHT22;7151;52.246;4.820;2022-10-12T16:18:21;18.30;60.90
14142;DHT22;7151;52.246;4.820;2022-10-12T16:20:47;18.30;61.00
14142;DHT22;7151;52.246;4.820;2022-10-12T16:23:16;18.30;61.00
14142;DHT22;7151;52.246;4.820;2022-10-12T16:25:42;18.30;61.10
14142;DHT22;7151;52.246;4.820;2022-10-12T16:28:09;18.30;61.20
14142;DHT22;7151;52.246;4.820;2022-10-12T16:30:35;18.20;61.20
14142;DHT22;7151;52.246;4.820;2022-10-12T16:33:00;18.20;61.30
14142;DHT22;7151;52.246;4.820;2022-10-12T16:35:26;18.20;61.40
14142;DHT22;7151;52.246;4.820;2022-10-12T16:37:52;18.10;61.40
14142;DHT22;7151;52.246;4.820;2022-10-12T16:40:17;18.10;61.50
14142;DHT22;7151;52.246;4.820;2022-10-12T16:42:43;18.10;61.50
14142;DHT22;7151;52.246;4.820;2022-10-12T16:45:10;18.10;61.60
14142;DHT22;7151;52.246;4.820;2022-10-12T16:47:39;18.00;61.60
14142;DHT22;7151;52.246;4.820;2022-10-12T16:50:05;18.00;61.80
14142;DHT22;7151;52.246;4.820;2022-10-12T16:52:31;18.00;61.80
14142;DHT22;7151;52.246;4.820;2022-10-12T16:54:57;17.90;61.80
14142;DHT22;7151;52.246;4.820;2022-10-12T16:57:22;17.90;61.90
14142;DHT22;7151;52.246;4.820;2022-10-12T16:59:48;17.90;62.10
14142;DHT22;7151;52.246;4.820;2022-10-12T17:02:15;17.80;62.20
14142;DHT22;7151;52.246;4.820;2022-10-12T17:04:41;17.80;62.30
14142;DHT22;7151;52.246;4.820;2022-10-12T17:07:06;17.70;62.40
14142;DHT22;7151;52.246;4.820;2022-10-12T17:09:32;17.80;62.50
14142;DHT22;7151;52.246;4.820;2022-10-12T17:11:58;17.70;62.70
14142;DHT22;7151;52.246;4.820;2022-10-12T17:14:24;17.60;62.70
14142;DHT22;7151;52.246;4.820;2022-10-12T17:16:50;17.60;62.80
14142;DHT22;7151;52.246;4.820;2022-10-12T17:19:24;17.50;62.90
14142;DHT22;7151;52.246;4.820;2022-10-12T17:21:50;17.50;63.10
14142;DHT22;7151;52.246;4.820;2022-10-12T17:24:18;17.40;63.10
14142;DHT22;7151;52.246;4.820;2022-10-12T17:26:44;17.40;63.30
14142;DHT22;7151;52.246;4.820;2022-10-12T17:29:15;17.40;63.50
14142;DHT22;7151;52.246;4.820;2022-10-12T17:31:42;17.30;63.50
14142;DHT22;7151;52.246;4.820;2022-10-12T17:34:17;17.30;63.70
14142;DHT22;7151;52.246;4.820;2022-10-12T17:36:43;17.20;63.80
14142;DHT22;7151;52.246;4.820;2022-10-12T17:39:09;17.20;63.90
14142;DHT22;7151;52.246;4.820;2022-10-12T17:41:34;17.20;64.00
14142;DHT22;7151;52.246;4.820;2022-10-12T17:44:00;17.20;64.10
14142;DHT22;7151;52.246;4.820;2022-10-12T17:46:25;17.10;64.10
14142;DHT22;7151;52.246;4.820;2022-10-12T17:48:52;17.20;64.30